Time;durP1;ratioP1;P1;durP2;ratioP2;P2;SDS_P1;SDS_P2;PMS_P1;PMS_P2;Temp;Humidity;BMP_temperature;BMP_pressure;BME280_temperature;BME280_humidity;BME280_pressure;Samples;Min_cycle;Max_cycle;Signal;HPM_P1;HPM_P2
2023/06/15 00:01:42;;;;;;;7.80;2.92;;;16.60;96.90;;;;;;4984501;28;20058;-72
2023/06/15 00:04:08;;;;;;;12.43;2.75;;;16.60;96.90;;;;;;4937811;28;209255;-72
2023/06/15 00:06:34;;;;;;;12.35;3.28;;;16.50;97.00;;;;;;4981357;28;20062;-72
2023/06/15 00:09:01;;;;;;;9.43;2.88;;;16.50;97.00;;;;;;4924575;28;206865;-73
2023/06/15 00:11:27;;;;;;;11.95;3.17;;;16.50;97.10;;;;;;4986436;28;20051;-72
2023/06/15 00:13:53;;;;;;;9.80;3.35;;;16.50;97.20;;;;;;4913760;28;280822;-72
2023/06/15 00:16:19;;;;;;;10.25;3.40;;;16.40;97.50;;;;;;4985093;28;20069;-72
2023/06/15 00:18:48;;;;;;;11.27;3.13;;;16.40;97.60;;;;;;4915383;28;208318;-72
2023/06/15 00:21:15;;;;;;;10.38;3.15;;;16.30;97.70;;;;;;4982852;28;20058;-72
2023/06/15 00:23:44;;;;;;;10.95;2.90;;;16.20;97.70;;;;;;4913958;28;217319;-72
2023/06/15 00:26:11;;;;;;;10.65;3.47;;;16.20;97.80;;;;;;4995577;28;20039;-72
2023/06/15 00:28:37;;;;;;;10.48;3.40;;;16.20;98.00;;;;;;4919534;28;128760;-72
2023/06/15 00:31:03;;;;;;;8.32;2.90;;;16.20;97.90;;;;;;4987663;28;20424;-72
2023/06/15 00:33:29;;;;;;;11.07;2.60;;;16.10;98.10;;;;;;4914826;28;214861;-72
2023/06/15 00:35:55;;;;;;;7.60;3.00;;;16.10;98.10;;;;;;4990350;28;20063;-72
2023/06/15 00:38:21;;;;;;;11.00;3.20;;;16.00;98.20;;;;;;4909667;28;212219;-72
2023/06/15 00:40:48;;;;;;;12.40;3.38;;;16.00;98.30;;;;;;4963559;28;20419;-72
2023/06/15 00:43:14;;;;;;;9.20;3.10;;;15.90;98.50;;;;;;4916810;28;246736;-71
2023/06/15 00:45:40;;;;;;;8.40;3.00;;;15.90;98.50;;;;;;4986861;28;20107;-71
2023/06/15 00:48:06;;;;;;;11.15;3.10;;;15.80;98.50;;;;;;4956980;28;208118;-71
2023/06/15 00:50:33;;;;;;;12.05;3.33;;;15.80;98.70;;;;;;4960463;28;203602;-72
2023/06/15 00:53:05;;;;;;;11.15;3.28;;;15.70;98.80;;;;;;4969456;28;20053;-72
2023/06/15 00:55:35;;;;;;;13.38;3.35;;;15.70;98.80;;;;;;4901875;28;207189;-72
2023/06/15 00:58:03;;;;;;;11.68;3.42;;;15.70;98.90;;;;;;4968162;28;20055;-72
2023/06/15 01:00:35;;;;;;;12.25;3.30;;;15.70;99.00;;;;;;4901353;28;212037;-72
2023/06/15 01:03:04;;;;;;;8.63;3.38;;;15.60;99.00;;;;;;4981907;28;20527;-72
2023/06/15 01:05:34;;;;;;;15.02;3.20;;;15.60;99.10;;;;;;4905228;28;207498;-71
2023/06/15 01:08:04;;;;;;;8.70;3.17;;;15.60;99.10;;;;;;4965045;28;20047;-72
2023/06/15 01:10:32;;;;;;;10.23;3.42;;;15.50;99.30;;;;;;4934252;28;208922;-73
2023/06/15 01:13:00;;;;;;;9.18;3.10;;;15.50;99.30;;;;;;4988922;28;20050;-72
2023/06/15 01:15:27;;;;;;;10.27;3.38;;;15.50;99.50;;;;;;4926933;28;152457;-72
2023/06/15 01:17:58;;;;;;;9.75;3.33;;;15.40;99.60;;;;;;4966225;28;20047;-72
2023/06/15 01:20:30;;;;;;;10.70;3.92;;;15.40;99.70;;;;;;4931878;28;206922;-72
2023/06/15 01:23:25;;;;;;;11.20;3.60;;;15.30;99.90;;;;;;4964131;28;20047;-72
2023/06/15 01:26:07;;;;;;;8.50;3.40;;;15.20;99.80;;;;;;4937435;28;27807;-71
2023/06/15 01:28:46;;;;;;;9.52;3.50;;;15.20;99.90;;;;;;4910758;28;207221;-71
2023/06/15 01:31:13;;;;;;;10.40;3.38;;;15.10;99.90;;;;;;4995551;28;20139;-72
2023/06/15 01:33:50;;;;;;;10.77;3.55;;;15.10;99.90;;;;;;4924781;28;209718;-72
2023/06/15 01:36:17;;;;;;;12.77;3.65;;;15.00;99.90;;;;;;4945103;28;20508;-72
2023/06/15 01:38:46;;;;;;;10.85;3.63;;;15.00;99.90;;;;;;4923892;28;208449;-72
2023/06/15 01:41:13;;;;;;;9.57;3.60;;;14.90;99.90;;;;;;4973951;28;20054;-73
2023/06/15 01:43:40;;;;;;;11.32;4.00;;;14.90;99.90;;;;;;4925503;28;204290;-71
2023/06/15 01:46:06;;;;;;;13.05;3.90;;;14.90;99.90;;;;;;4982790;28;20058;-71
2023/06/15 01:48:33;;;;;;;11.35;4.18;;;14.90;99.90;;;;;;4911872;28;209905;-71
2023/06/15 01:51:00;;;;;;;13.18;4.40;;;14.80;99.90;;;;;;4987480;28;20059;-71
2023/06/15 01:53:26;;;;;;;10.63;3.95;;;14.80;99.90;;;;;;4897293;28;221818;-71
2023/06/15 01:55:53;;;;;;;9.80;3.90;;;14.80;99.90;;;;;;4981769;28;20046;-72
2023/06/15 01:58:19;;;;;;;10.18;3.97;;;14.80;99.90;;;;;;4917861;28;212885;-72
2023/06/15 02:00:47;;;;;;;10.15;4.13;;;14.80;99.90;;;;;;4989299;28;20055;-72
2023/06/15 02:03:13;;;;;;;10.50;3.80;;;14.70;99.90;;;;;;4915525;28;238636;-72
2023/06/15 02:05:40;;;;;;;9.35;4.20;;;14.70;99.90;;;;;;5006025;28;20071;-73
2023/06/15 02:08:07;;;;;;;14.55;4.38;;;14.80;99.90;;;;;;4977146;28;209957;-71
2023/06/15 02:10:34;;;;;;;10.88;3.95;;;14.70;99.90;;;;;;4961017;28;203733;-72
2023/06/15 02:13:00;;;;;;;10.38;4.03;;;14.70;99.90;;;;;;4986422;28;20054;-72
2023/06/15 02:15:27;;;;;;;10.45;3.97;;;14.70;99.90;;;;;;4951061;28;207156;-71
2023/06/15 02:17:58;;;;;;;12.75;4.32;;;14.70;99.90;;;;;;4967182;28;20054;-72
2023/06/15 02:20:25;;;;;;;;;;;14.70;99.90;;;;;;4932050;28;206891;-72
2023/06/15 02:22:52;;;;;;;11.35;4.00;;;14.70;99.90;;;;;;4965631;28;19929;-70
2023/06/15 02:25:19;;;;;;;10.43;3.92;;;14.60;99.90;;;;;;4915019;28;227834;-72
2023/06/15 02:27:45;;;;;;;10.60;4.20;;;14.60;99.90;;;;;;4969099;28;20046;-71
2023/06/15 02:30:12;;;;;;;12.55;4.38;;;14.50;99.90;;;;;;4946969;28;210079;-72
2023/06/15 02:32:39;;;;;;;11.73;4.40;;;14.50;99.90;;;;;;4994189;28;20053;-71
2023/06/15 02:35:09;;;;;;;11.10;4.32;;;14.50;99.90;;;;;;4963831;28;210900;-71
2023/06/15 02:37:39;;;;;;;11.93;4.53;;;14.40;99.90;;;;;;4987802;28;20046;-71
2023/06/15 02:40:07;;;;;;;9.97;5.10;;;14.40;99.90;;;;;;4924454;28;200900;-71
2023/06/15 02:42:33;;;;;;;11.90;4.57;;;14.30;99.90;;;;;;4967046;28;20059;-72
2023/06/15 02:45:01;;;;;;;10.70;4.35;;;14.30;99.90;;;;;;4927450;28;209388;-71
2023/06/15 02:47:28;;;;;;;10.27;3.63;;;14.30;99.90;;;;;;4964684;28;20512;-71
2023/06/15 02:49:54;;;;;;;11.00;4.65;;;14.20;99.90;;;;;;4907958;28;209112;-72
2023/06/15 02:52:20;;;;;;;9.23;3.90;;;14.20;99.90;;;;;;4969310;28;20050;-71
2023/06/15 02:54:46;;;;;;;11.68;4.55;;;14.20;99.90;;;;;;4905874;28;208467;-71
2023/06/15 02:57:12;;;;;;;13.30;4.70;;;14.20;99.90;;;;;;4970721;28;20477;-71
2023/06/15 02:59:40;;;;;;;12.02;5.10;;;14.20;99.90;;;;;;4917883;28;209604;-70
2023/06/15 03:02:07;;;;;;;10.82;4.72;;;14.20;99.90;;;;;;4969741;28;20063;-71
2023/06/15 03:04:37;;;;;;;10.90;4.90;;;14.20;99.90;;;;;;4918599;28;240459;-71
2023/06/15 03:07:03;;;;;;;10.98;4.72;;;14.10;99.90;;;;;;4975590;28;20061;-71
2023/06/15 03:09:30;;;;;;;11.93;5.00;;;14.10;99.90;;;;;;4923829;28;206813;-71
2023/06/15 03:11:56;;;;;;;12.75;5.20;;;14.10;99.90;;;;;;4991921;28;20442;-71
2023/06/15 03:14:22;;;;;;;13.98;5.07;;;14.00;99.90;;;;;;4924774;28;210249;-71
2023/06/15 03:16:48;;;;;;;12.35;5.32;;;14.00;99.90;;;;;;4961133;28;20061;-71
2023/06/15 03:19:15;;;;;;;11.45;5.22;;;14.00;99.90;;;;;;4930457;28;206489;-71
2023/06/15 03:21:41;;;;;;;16.35;4.97;;;13.90;99.90;;;;;;4997893;28;20042;-72
2023/06/15 03:24:08;;;;;;;12.02;5.40;;;13.90;99.90;;;;;;4936479;28;208990;-71
2023/06/15 03:26:40;;;;;;;12.60;4.50;;;13.90;99.90;;;;;;4992583;28;20062;-71
2023/06/15 03:29:07;;;;;;;14.05;5.70;;;13.80;99.90;;;;;;4938117;28;206432;-71
2023/06/15 03:31:40;;;;;;;11.38;4.82;;;13.90;99.90;;;;;;4981996;28;20501;-72
2023/06/15 03:34:07;;;;;;;11.50;4.90;;;13.80;99.90;;;;;;4919459;28;206446;-71
2023/06/15 03:36:34;;;;;;;12.73;5.35;;;13.80;99.90;;;;;;4964257;28;20516;-71
2023/06/15 03:39:00;;;;;;;11.30;4.97;;;13.80;99.90;;;;;;4915955;28;214653;-72
2023/06/15 03:41:27;;;;;;;14.25;5.32;;;13.80;99.90;;;;;;4970296;28;20058;-72
2023/06/15 03:43:54;;;;;;;10.10;4.80;;;13.80;99.90;;;;;;4924095;28;207986;-71
2023/06/15 03:46:20;;;;;;;13.68;5.75;;;13.80;99.90;;;;;;4997347;28;20431;-72
2023/06/15 03:48:46;;;;;;;14.48;5.93;;;13.80;99.90;;;;;;4935904;28;206832;-72
2023/06/15 03:51:12;;;;;;;13.43;5.43;;;13.90;99.90;;;;;;4996980;28;20054;-71
2023/06/15 03:53:42;;;;;;;12.00;5.43;;;13.80;99.90;;;;;;4937504;28;62278;-71
2023/06/15 03:56:08;;;;;;;12.55;5.10;;;13.90;99.90;;;;;;5007855;28;20038;-72
2023/06/15 03:58:34;;;;;;;11.73;5.30;;;13.90;99.90;;;;;;4938826;28;146589;-71
2023/06/15 04:01:04;;;;;;;13.50;5.82;;;13.90;99.90;;;;;;4993976;28;20069;-72
2023/06/15 04:03:36;;;;;;;12.07;5.57;;;14.10;99.90;;;;;;4938657;28;207291;-72
2023/06/15 04:06:06;;;;;;;11.88;5.35;;;14.10;99.90;;;;;;5006958;28;20062;-70
2023/06/15 04:08:35;;;;;;;11.65;5.63;;;14.20;99.90;;;;;;4925932;28;207419;-71
2023/06/15 04:11:01;;;;;;;15.65;5.75;;;14.20;99.90;;;;;;4994463;28;20054;-71
2023/06/15 04:13:27;;;;;;;14.20;5.78;;;14.30;99.90;;;;;;4935079;28;213381;-71
2023/06/15 04:15:53;;;;;;;12.57;5.45;;;14.30;99.90;;;;;;5010295;28;20535;-72
2023/06/15 04:18:23;;;;;;;11.27;5.30;;;14.40;99.90;;;;;;4930310;28;207098;-71
2023/06/15 04:20:49;;;;;;;10.40;5.15;;;14.50;99.90;;;;;;5008047;28;20065;-71
2023/06/15 04:23:16;;;;;;;11.40;5.55;;;14.60;99.90;;;;;;4928737;28;213265;-71
2023/06/15 04:25:42;;;;;;;10.68;4.88;;;14.70;99.90;;;;;;4984501;28;20050;-72
2023/06/15 04:28:11;;;;;;;11.68;5.97;;;14.80;99.90;;;;;;4973820;28;207543;-70
2023/06/15 04:30:40;;;;;;;10.48;5.65;;;14.80;99.90;;;;;;4944051;28;262580;-72
2023/06/15 04:33:13;;;;;;;11.93;5.28;;;14.90;99.90;;;;;;4962496;28;20441;-71
2023/06/15 04:35:45;;;;;;;14.23;5.60;;;15.00;99.90;;;;;;4917933;28;207568;-71
2023/06/15 04:38:14;;;;;;;11.02;4.53;;;15.10;99.90;;;;;;4941908;28;207552;-71
2023/06/15 04:40:46;;;;;;;12.52;5.07;;;15.20;99.90;;;;;;4959851;28;20560;-72
2023/06/15 04:43:12;;;;;;;12.82;5.10;;;15.30;99.90;;;;;;4929843;28;208959;-72
2023/06/15 04:45:38;;;;;;;12.82;5.35;;;15.40;99.90;;;;;;4945253;28;20058;-72
2023/06/15 04:48:05;;;;;;;11.55;4.93;;;15.50;99.90;;;;;;4974432;28;20054;-72
2023/06/15 04:50:32;;;;;;;11.70;4.93;;;15.60;99.90;;;;;;4970011;28;151211;-72
2023/06/15 04:52:58;;;;;;;10.95;4.90;;;15.70;99.90;;;;;;4984769;28;20039;-72
2023/06/15 04:55:24;;;;;;;12.73;4.57;;;15.80;99.90;;;;;;4940242;28;226375;-72
2023/06/15 04:57:50;;;;;;;10.48;4.32;;;15.90;99.90;;;;;;4984203;28;20058;-72
2023/06/15 05:00:17;;;;;;;14.15;4.70;;;16.00;99.90;;;;;;4952226;28;207170;-72
2023/06/15 05:02:43;;;;;;;14.77;4.43;;;16.10;99.90;;;;;;4997356;28;20073;-72
2023/06/15 05:05:11;;;;;;;10.25;4.35;;;16.20;99.90;;;;;;4927740;28;208687;-72
2023/06/15 05:07:37;;;;;;;12.52;4.65;;;16.30;99.90;;;;;;4982134;28;20066;-71
2023/06/15 05:10:03;;;;;;;11.18;4.25;;;16.40;99.90;;;;;;4932469;28;208381;-71
2023/06/15 05:12:31;;;;;;;12.40;4.32;;;16.50;99.90;;;;;;4984195;28;20054;-71
2023/06/15 05:14:57;;;;;;;11.45;3.80;;;16.60;99.90;;;;;;4937292;28;209424;-71
2023/06/15 05:17:23;;;;;;;11.23;3.72;;;16.80;99.90;;;;;;4964409;28;20073;-72
2023/06/15 05:19:49;;;;;;;10.90;3.90;;;16.90;99.90;;;;;;4935775;28;210675;-71
2023/06/15 05:22:15;;;;;;;9.70;3.83;;;17.00;99.90;;;;;;4983049;28;20077;-71
2023/06/15 05:24:42;;;;;;;10.57;4.00;;;17.10;99.90;;;;;;4941713;28;206688;-73
2023/06/15 05:27:08;;;;;;;11.30;3.65;;;17.30;99.90;;;;;;4987192;28;20066;-72
2023/06/15 05:29:36;;;;;;;11.85;3.78;;;17.40;99.90;;;;;;4920393;28;212936;-71
2023/06/15 05:32:02;;;;;;;10.07;3.33;;;17.50;99.90;;;;;;4974547;28;20550;-71
2023/06/15 05:34:28;;;;;;;11.55;3.78;;;17.60;99.90;;;;;;4925178;28;210223;-72
2023/06/15 05:36:55;;;;;;;9.98;3.25;;;17.70;99.90;;;;;;4965843;28;20516;-71
2023/06/15 05:39:21;;;;;;;15.25;3.30;;;17.90;99.90;;;;;;4932475;28;210703;-72
2023/06/15 05:41:47;;;;;;;9.30;3.17;;;18.10;99.90;;;;;;4973486;28;20067;-71
2023/06/15 05:44:13;;;;;;;11.93;3.22;;;18.20;99.90;;;;;;4920208;28;213841;-71
2023/06/15 05:46:39;;;;;;;8.32;2.97;;;18.40;99.90;;;;;;4972185;28;20054;-71
2023/06/15 05:49:05;;;;;;;11.25;3.20;;;18.60;99.10;;;;;;4913766;28;212417;-72
2023/06/15 05:51:31;;;;;;;9.23;2.95;;;18.80;98.00;;;;;;4974662;28;20065;-72
2023/06/15 05:53:57;;;;;;;11.10;3.20;;;19.00;98.30;;;;;;4900761;28;230297;-72
2023/06/15 05:56:23;;;;;;;10.02;2.60;;;19.20;97.70;;;;;;4960871;28;20069;-72
2023/06/15 05:58:50;;;;;;;10.60;2.80;;;19.50;97.30;;;;;;4915252;28;215861;-72
2023/06/15 06:01:16;;;;;;;9.27;2.88;;;19.80;96.70;;;;;;4985936;28;20065;-72
2023/06/15 06:03:42;;;;;;;8.95;2.53;;;20.00;95.80;;;;;;4933974;28;212620;-72
2023/06/15 06:06:08;;;;;;;11.00;2.75;;;20.20;95.80;;;;;;4983909;28;20121;-71
2023/06/15 06:08:35;;;;;;;10.77;2.72;;;20.50;95.60;;;;;;4909453;28;219011;-74
2023/06/15 06:11:03;;;;;;;8.35;2.85;;;20.80;95.40;;;;;;4985103;28;20058;-72
2023/06/15 06:13:30;;;;;;;8.82;2.50;;;21.10;94.80;;;;;;4917664;28;276305;-72
2023/06/15 06:15:56;;;;;;;9.13;2.97;;;21.30;94.40;;;;;;4982497;28;20066;-72
2023/06/15 06:18:22;;;;;;;8.27;3.08;;;21.50;94.00;;;;;;4920995;28;212647;-72
2023/06/15 06:20:48;;;;;;;12.00;2.85;;;21.60;93.70;;;;;;4973746;28;20059;-72
2023/06/15 06:23:15;;;;;;;12.27;3.15;;;21.80;93.20;;;;;;4911006;28;216653;-70
2023/06/15 06:25:41;;;;;;;9.55;2.72;;;22.00;93.50;;;;;;4992155;28;20046;-72
2023/06/15 06:28:07;;;;;;;15.30;2.83;;;22.10;93.00;;;;;;4974909;28;208067;-72
2023/06/15 06:30:33;;;;;;;11.65;2.90;;;22.30;92.80;;;;;;4940998;28;210019;-72
2023/06/15 06:33:02;;;;;;;10.20;2.35;;;22.50;92.30;;;;;;4961401;28;20039;-72
2023/06/15 06:35:28;;;;;;;10.32;2.65;;;22.70;91.80;;;;;;4933584;28;221158;-72
2023/06/15 06:37:54;;;;;;;10.23;3.03;;;22.80;91.70;;;;;;4966494;28;20110;-72
2023/06/15 06:40:20;;;;;;;10.20;2.70;;;23.00;91.30;;;;;;4939181;28;211036;-72
2023/06/15 06:42:46;;;;;;;10.13;2.70;;;23.10;91.30;;;;;;4966434;28;20054;-72
2023/06/15 06:45:13;;;;;;;11.40;2.78;;;23.30;91.00;;;;;;4922884;28;210416;-72
2023/06/15 06:47:39;;;;;;;12.80;2.70;;;23.50;90.60;;;;;;4965353;28;20058;-72
2023/06/15 06:50:06;;;;;;;10.18;2.70;;;23.70;89.20;;;;;;4917192;28;213559;-72
2023/06/15 06:52:32;;;;;;;11.15;2.70;;;23.80;89.70;;;;;;4960755;28;20047;-72
2023/06/15 06:54:58;;;;;;;9.50;2.78;;;24.10;88.70;;;;;;4934721;28;212803;-72
2023/06/15 06:57:24;;;;;;;8.18;2.42;;;24.20;87.10;;;;;;4985076;28;20069;-72
2023/06/15 06:59:51;;;;;;;8.18;2.38;;;24.20;87.00;;;;;;4945496;28;213504;-72
2023/06/15 07:02:17;;;;;;;11.25;2.55;;;24.40;87.10;;;;;;4964895;28;20054;-72
2023/06/15 07:04:43;;;;;;;8.57;2.60;;;24.60;86.30;;;;;;4938628;28;214788;-71
2023/06/15 07:07:09;;;;;;;11.75;2.80;;;24.80;85.50;;;;;;4965679;28;20567;-72
2023/06/15 07:09:35;;;;;;;9.40;2.47;;;25.00;84.10;;;;;;4929303;28;213231;-72
2023/06/15 07:12:01;;;;;;;10.90;2.42;;;25.10;83.60;;;;;;4966395;28;20058;-72
2023/06/15 07:14:28;;;;;;;10.32;2.47;;;25.20;82.90;;;;;;4919175;28;211472;-72
2023/06/15 07:16:54;;;;;;;9.52;2.70;;;25.50;82.40;;;;;;4960900;28;20078;-71
2023/06/15 07:19:20;;;;;;;7.75;2.50;;;25.60;80.70;;;;;;4920926;28;213392;-71
2023/06/15 07:21:46;;;;;;;10.68;2.50;;;25.70;81.60;;;;;;4973731;28;20066;-71
2023/06/15 07:24:12;;;;;;;8.85;2.40;;;26.00;80.40;;;;;;4928129;28;215534;-72
2023/06/15 07:26:38;;;;;;;8.68;2.50;;;26.60;76.90;;;;;;4986787;28;20050;-71
2023/06/15 07:29:04;;;;;;;10.25;2.70;;;27.30;78.20;;;;;;4927381;28;202322;-71
2023/06/15 07:31:30;;;;;;;10.07;2.95;;;27.50;78.00;;;;;;4977002;28;20051;-70
2023/06/15 07:33:56;;;;;;;8.40;2.15;;;27.40;76.20;;;;;;4918578;28;212470;-72
2023/06/15 07:36:22;;;;;;;9.45;2.50;;;27.50;76.80;;;;;;4959185;28;20522;-72
2023/06/15 07:38:49;;;;;;;13.70;2.50;;;27.60;76.70;;;;;;4925262;28;216746;-71
2023/06/15 07:41:15;;;;;;;9.13;2.20;;;27.60;76.00;;;;;;4975939;28;20051;-71
2023/06/15 07:43:41;;;;;;;11.20;2.40;;;27.60;75.40;;;;;;4910327;28;212502;-71
2023/06/15 07:46:07;;;;;;;10.73;2.20;;;27.60;75.10;;;;;;4977540;28;20050;-72
2023/06/15 07:48:33;;;;;;;8.18;2.30;;;27.80;73.30;;;;;;4907142;28;215898;-71
2023/06/15 07:50:59;;;;;;;8.57;2.28;;;28.00;72.90;;;;;;4972902;28;20061;-71
2023/06/15 07:53:25;;;;;;;9.35;2.42;;;28.20;72.00;;;;;;4902037;28;209177;-71
2023/06/15 07:55:51;;;;;;;10.98;2.47;;;28.10;71.30;;;;;;5004215;28;21409;-72
2023/06/15 07:58:17;;;;;;;9.13;2.45;;;28.30;70.80;;;;;;4916624;28;215460;-71
2023/06/15 08:00:44;;;;;;;9.32;2.58;;;28.40;69.80;;;;;;4982123;28;20059;-71
2023/06/15 08:03:10;;;;;;;9.77;2.45;;;28.50;71.10;;;;;;4938936;28;212014;-72
2023/06/15 08:05:36;;;;;;;8.80;2.30;;;28.60;69.70;;;;;;4967164;28;106912;-71
2023/06/15 08:08:02;;;;;;;8.52;2.38;;;28.60;69.50;;;;;;4978188;28;20508;-72
2023/06/15 08:10:29;;;;;;;8.50;2.17;;;28.80;68.50;;;;;;4947537;28;212637;-72
2023/06/15 08:12:57;;;;;;;12.38;2.35;;;28.80;68.00;;;;;;4979333;28;20412;-71
2023/06/15 08:15:23;;;;;;;10.48;2.50;;;28.90;67.40;;;;;;4937990;28;200890;-71
2023/06/15 08:17:49;;;;;;;9.30;2.20;;;28.80;66.00;;;;;;4977609;28;20534;-72
2023/06/15 08:20:15;;;;;;;8.63;2.20;;;28.90;66.60;;;;;;4936659;28;214966;-71
2023/06/15 08:22:42;;;;;;;9.45;2.30;;;29.00;66.60;;;;;;4958734;28;20117;-72
2023/06/15 08:25:09;;;;;;;9.52;2.20;;;29.10;65.70;;;;;;4916364;28;125974;-72
2023/06/15 08:27:35;;;;;;;7.63;2.10;;;29.40;66.40;;;;;;4961366;28;20067;-72
2023/06/15 08:30:01;;;;;;;8.93;2.13;;;29.80;64.30;;;;;;4924303;28;210182;-72
2023/06/15 08:32:29;;;;;;;9.00;2.40;;;30.10;65.70;;;;;;4964073;28;20057;-73
2023/06/15 08:34:55;;;;;;;8.05;2.22;;;29.80;62.80;;;;;;4903894;28;210215;-72
2023/06/15 08:37:21;;;;;;;8.27;2.08;;;29.20;61.70;;;;;;4958061;28;20057;-73
2023/06/15 08:39:47;;;;;;;7.43;2.05;;;29.60;63.40;;;;;;4917668;28;208660;-73
2023/06/15 08:42:16;;;;;;;11.20;2.30;;;30.00;62.60;;;;;;4976381;28;20492;-73
2023/06/15 08:44:46;;;;;;;8.18;2.22;;;30.20;60.20;;;;;;4932071;28;213279;-73
2023/06/15 08:47:12;;;;;;;9.07;2.30;;;30.20;59.30;;;;;;4967576;28;20832;-73
2023/06/15 08:49:39;;;;;;;8.65;2.00;;;30.30;59.20;;;;;;4912440;28;215948;-73
2023/06/15 08:52:08;;;;;;;8.23;2.25;;;30.50;60.10;;;;;;4964651;28;20051;-72
2023/06/15 08:54:35;;;;;;;10.35;2.20;;;30.70;60.50;;;;;;4909208;28;206796;-72
2023/06/15 08:57:02;;;;;;;9.15;2.25;;;31.00;60.10;;;;;;4965852;28;20058;-72
2023/06/15 08:59:30;;;;;;;7.97;2.45;;;31.10;60.10;;;;;;4931207;28;213601;-72
2023/06/15 09:02:01;;;;;;;9.70;2.33;;;31.50;59.40;;;;;;4990041;28;20062;-72
2023/06/15 09:04:30;;;;;;;7.10;1.98;;;31.90;60.00;;;;;;4935197;28;211024;-71
2023/06/15 09:06:58;;;;;;;10.20;2.25;;;32.50;59.30;;;;;;4980155;28;20062;-72
2023/06/15 09:09:25;;;;;;;7.43;2.20;;;32.80;59.40;;;;;;4933455;28;212641;-72
2023/06/15 09:11:51;;;;;;;10.02;2.50;;;32.70;57.30;;;;;;4987833;28;20130;-72
2023/06/15 09:14:17;;;;;;;9.13;2.20;;;32.90;57.30;;;;;;4936162;28;217197;-72
2023/06/15 09:16:43;;;;;;;7.60;2.13;;;32.80;57.00;;;;;;4980930;28;20050;-71
2023/06/15 09:19:11;;;;;;;12.15;2.25;;;32.80;56.40;;;;;;4932968;28;213761;-72
2023/06/15 09:21:42;;;;;;;6.93;2.13;;;33.10;54.00;;;;;;4983120;28;20058;-73
2023/06/15 09:24:09;;;;;;;8.10;2.10;;;33.40;55.00;;;;;;4936078;28;209221;-71
2023/06/15 09:26:39;;;;;;;11.48;2.38;;;33.90;54.80;;;;;;4997254;28;20069;-71
2023/06/15 09:29:10;;;;;;;10.18;2.10;;;33.30;51.20;;;;;;4935114;28;210827;-72
2023/06/15 09:31:36;;;;;;;9.40;2.30;;;33.00;53.20;;;;;;4983630;28;20050;-72
2023/06/15 09:34:10;;;;;;;8.27;2.10;;;33.60;52.50;;;;;;4938786;28;213072;-72
2023/06/15 09:36:48;;;;;;;8.18;2.00;;;33.80;52.20;;;;;;4991804;28;20113;-72
2023/06/15 09:39:22;;;;;;;9.05;2.30;;;34.10;50.90;;;;;;4936248;28;209723;-72
2023/06/15 09:41:51;;;;;;;7.50;2.17;;;34.30;51.80;;;;;;4969296;28;20050;-72
2023/06/15 09:44:22;;;;;;;9.52;2.63;;;33.90;51.30;;;;;;4928654;28;218573;-71
2023/06/15 09:46:50;;;;;;;6.80;2.00;;;34.20;52.00;;;;;;4972186;28;20507;-73
2023/06/15 09:49:25;;;;;;;9.52;2.50;;;34.30;51.10;;;;;;4900128;28;214453;-71
2023/06/15 09:51:52;;;;;;;11.02;2.30;;;34.60;49.30;;;;;;4954524;28;20063;-72
2023/06/15 09:54:22;;;;;;;7.80;2.13;;;34.30;49.90;;;;;;4894387;28;210468;-71
2023/06/15 09:56:52;;;;;;;7.72;2.30;;;34.30;50.10;;;;;;4965502;28;20547;-71
2023/06/15 09:59:20;;;;;;;7.78;2.05;;;34.20;50.00;;;;;;4919884;28;188390;-72
2023/06/15 10:01:54;;;;;;;7.20;1.92;;;34.60;51.00;;;;;;4986307;28;20061;-72
2023/06/15 10:04:24;;;;;;;11.52;2.20;;;35.00;49.40;;;;;;4928000;28;206484;-73
2023/06/15 10:06:55;;;;;;;10.35;1.98;;;35.10;49.90;;;;;;4984403;28;20439;-72
2023/06/15 10:09:28;;;;;;;8.80;2.38;;;35.20;48.90;;;;;;4930824;28;205469;-72
2023/06/15 10:12:05;;;;;;;11.15;2.00;;;34.90;49.50;;;;;;4982622;28;20054;-72
2023/06/15 10:14:58;;;;;;;7.55;2.03;;;35.20;49.40;;;;;;4942926;28;217034;-73
2023/06/15 10:17:30;;;;;;;8.27;2.20;;;35.10;49.70;;;;;;4990245;28;20057;-72
2023/06/15 10:20:08;;;;;;;8.38;2.13;;;35.30;49.60;;;;;;4949203;28;213027;-72
2023/06/15 10:22:45;;;;;;;6.20;1.95;;;35.40;49.70;;;;;;4985928;28;20057;-73
2023/06/15 10:25:13;;;;;;;7.32;2.08;;;35.70;49.40;;;;;;4955784;28;110519;-72
2023/06/15 10:27:39;;;;;;;8.77;2.10;;;36.10;49.20;;;;;;4988902;28;20055;-73
2023/06/15 10:30:33;;;;;;;6.55;1.85;;;36.10;48.40;;;;;;4954610;28;209804;-72
2023/06/15 10:33:23;;;;;;;9.90;2.70;;;35.60;47.90;;;;;;4984950;28;20042;-72
2023/06/15 10:36:25;;;;;;;8.48;2.33;;;35.40;44.60;;;;;;4906502;28;20057;-72
2023/06/15 10:38:57;;;;;;;9.70;2.35;;;34.70;47.40;;;;;;4929111;28;246317;-72
2023/06/15 10:41:23;;;;;;;6.85;1.92;;;34.90;47.00;;;;;;4992605;28;20042;-73
2023/06/15 10:44:00;;;;;;;9.95;2.13;;;35.40;47.40;;;;;;4941730;28;215620;-72
2023/06/15 10:46:34;;;;;;;8.02;2.00;;;35.90;46.10;;;;;;4988595;28;20388;-72
2023/06/15 10:49:05;;;;;;;6.25;1.85;;;35.90;46.50;;;;;;4930214;28;215156;-72
2023/06/15 10:51:35;;;;;;;7.35;2.03;;;35.70;46.50;;;;;;4959364;28;20066;-67
2023/06/15 10:54:03;;;;;;;8.57;2.10;;;35.20;46.20;;;;;;4919156;28;211260;-70
2023/06/15 10:56:30;;;;;;;7.90;1.98;;;35.40;47.40;;;;;;4987587;28;20435;-69
2023/06/15 10:59:01;;;;;;;6.05;1.83;;;35.20;47.60;;;;;;4928823;28;211207;-69
2023/06/15 11:01:29;;;;;;;9.40;1.98;;;35.30;46.10;;;;;;4976301;28;20065;-69
2023/06/15 11:03:56;;;;;;;8.35;2.03;;;35.30;46.10;;;;;;4923575;28;267172;-69
2023/06/15 11:06:54;;;;;;;7.88;2.00;;;35.10;46.00;;;;;;4997518;28;20059;-69
2023/06/15 11:09:24;;;;;;;7.45;2.00;;;34.80;44.80;;;;;;4929444;28;206548;-69
2023/06/15 11:11:51;;;;;;;7.68;2.10;;;34.20;44.20;;;;;;4988584;28;20058;-69
2023/06/15 11:14:21;;;;;;;9.13;2.05;;;34.20;43.60;;;;;;4929261;28;209208;-70
2023/06/15 11:17:05;;;;;;;8.23;1.98;;;34.40;44.80;;;;;;4947297;28;20508;-69
2023/06/15 11:19:31;;;;;;;7.47;1.95;;;34.30;43.50;;;;;;4928084;28;229272;-69
2023/06/15 11:22:07;;;;;;;7.45;2.20;;;34.00;43.80;;;;;;4989218;28;20065;-69
2023/06/15 11:24:36;;;;;;;7.82;2.00;;;33.70;43.30;;;;;;4922714;28;207457;-71
2023/06/15 11:27:08;;;;;;;7.68;2.30;;;33.50;43.90;;;;;;4985060;28;20057;-69
2023/06/15 11:29:42;;;;;;;7.32;2.17;;;33.20;43.40;;;;;;4929677;28;215286;-69
2023/06/15 11:32:10;;;;;;;8.93;2.33;;;33.00;43.60;;;;;;4962086;28;20447;-69
2023/06/15 11:34:37;;;;;;;8.30;2.10;;;33.50;44.90;;;;;;4915494;28;209275;-68
2023/06/15 11:37:05;;;;;;;8.20;2.45;;;33.70;45.10;;;;;;4966535;28;20058;-69
2023/06/15 11:39:31;;;;;;;8.70;2.20;;;33.90;44.80;;;;;;4916944;28;235670;-69
2023/06/15 11:41:58;;;;;;;8.48;2.15;;;33.60;44.50;;;;;;4966703;28;20069;-69
2023/06/15 11:44:28;;;;;;;9.57;2.30;;;34.20;45.80;;;;;;4925647;28;210013;-70
2023/06/15 11:47:00;;;;;;;7.15;2.33;;;34.90;44.80;;;;;;4973079;28;20062;-70
2023/06/15 11:49:36;;;;;;;7.80;1.92;;;35.10;44.80;;;;;;4929102;28;210271;-69
2023/06/15 11:52:03;;;;;;;9.00;2.25;;;34.90;44.30;;;;;;4987158;28;20065;-69
2023/06/15 11:54:30;;;;;;;12.48;2.20;;;35.20;44.20;;;;;;4924880;28;221794;-69
2023/06/15 11:57:00;;;;;;;9.43;2.17;;;35.10;43.80;;;;;;4964809;28;20058;-69
2023/06/15 11:59:27;;;;;;;8.60;2.05;;;34.50;43.60;;;;;;4936363;28;209171;-69
2023/06/15 12:02:00;;;;;;;8.00;2.10;;;34.50;43.10;;;;;;4971896;28;20055;-69
2023/06/15 12:04:31;;;;;;;7.75;2.20;;;34.80;43.80;;;;;;4930396;28;216718;-69
2023/06/15 12:07:00;;;;;;;11.70;2.38;;;34.70;41.90;;;;;;4969592;28;20464;-69
2023/06/15 12:09:27;;;;;;;7.55;2.20;;;34.20;43.90;;;;;;4924517;28;214727;-70
2023/06/15 12:11:53;;;;;;;7.50;2.13;;;34.60;44.10;;;;;;4979118;28;20053;-70
2023/06/15 12:14:21;;;;;;;8.23;2.40;;;35.30;44.00;;;;;;4916626;28;210347;-69
2023/06/15 12:16:51;;;;;;;8.82;2.30;;;35.70;44.90;;;;;;4966448;28;20752;-70
2023/06/15 12:19:20;;;;;;;9.50;2.40;;;35.50;43.70;;;;;;4921211;28;206940;-69
2023/06/15 12:21:47;;;;;;;12.82;2.30;;;35.70;44.30;;;;;;4963781;28;20070;-70
2023/06/15 12:24:15;;;;;;;9.13;2.00;;;35.60;44.40;;;;;;4920725;28;212840;-70
2023/06/15 12:26:48;;;;;;;7.72;2.10;;;35.40;42.00;;;;;;4967567;28;20046;-70
2023/06/15 12:29:17;;;;;;;9.48;2.10;;;35.50;42.40;;;;;;4924616;28;211993;-70
2023/06/15 12:31:51;;;;;;;7.85;2.10;;;35.40;44.00;;;;;;4976663;28;20081;-69
2023/06/15 12:34:25;;;;;;;8.70;2.30;;;35.50;42.80;;;;;;4934509;28;210465;-70
2023/06/15 12:36:52;;;;;;;8.73;2.25;;;35.50;41.40;;;;;;4970429;28;20080;-70
2023/06/15 12:39:19;;;;;;;8.90;2.20;;;35.30;42.90;;;;;;4916282;28;213904;-70
2023/06/15 12:41:45;;;;;;;7.85;2.30;;;35.70;44.30;;;;;;4972963;28;20039;-70